»·PEaware :: N791JR KBUR-KSBA

N791JR :: KBUR-KSBA

FLIGHT INFORMATION

Flight Status: Arrived
Operator: Privately registered:
United States
More flights under this callsign
Pilot: Stan G. (19127)
Aircraft: CESSNA 172 SKYHAWK
(C172)
More flights by this aircraft type
Origin: KBUR Bob Hope-Burbank
United States
Destination: KSBA Santa Barbara Mun
United States
More flights between these airports :: More routes between these airports
Route: VNY3 FIM V186 DEANO V27 KWANG
File this flight plan on PilotEdge
Remarks:
Altitude:
(Current/Filed)
6,000ft
Speed:
(Current/Filed)
115kts
Departed: 27-Jan-19 06:07 PM
Arrived: 27-Jan-19 07:13 PM
Distance/Time
Traveled:
74nm/1:06
Distance/Time
To Go:
Arrived

Flight Plot

Page will automatically refresh every two minutes.


Map Options




Map Legend


Flown Route
Filed Route
Departure Airport
Arrival Airport
Navaid (VOR, NDB)
Fix

Horizontal Profiles

Position Reports

Time Latitude Longitude Heading Altitude Ground
Speed
27-Jan-19 17:39 34.200203 -118.358746 263 720ft 0kts
27-Jan-19 17:40 34.200203 -118.358746 263 720ft 0kts
27-Jan-19 17:41 34.200203 -118.358746 263 720ft 0kts
27-Jan-19 17:42 34.200203 -118.358746 263 720ft 0kts
27-Jan-19 17:43 34.200203 -118.358746 263 720ft 0kts
27-Jan-19 17:44 34.200203 -118.358746 263 720ft 0kts
27-Jan-19 17:45 34.200203 -118.358746 263 720ft 0kts
27-Jan-19 17:46 34.200203 -118.358746 263 720ft 0kts
27-Jan-19 17:47 34.200203 -118.358746 263 720ft 0kts
27-Jan-19 17:48 34.200203 -118.358746 263 720ft 0kts
27-Jan-19 17:49 34.200203 -118.358746 263 720ft 0kts
27-Jan-19 17:50 34.200203 -118.358746 263 720ft 0kts
27-Jan-19 17:51 34.200203 -118.358746 263 720ft 0kts
27-Jan-19 17:53 34.200203 -118.358746 263 720ft 0kts
27-Jan-19 17:54 34.200203 -118.358746 263 720ft 0kts
27-Jan-19 17:55 34.200203 -118.358746 263 720ft 0kts
27-Jan-19 17:56 34.200203 -118.358746 263 720ft 0kts
27-Jan-19 17:57 34.200203 -118.358746 263 720ft 0kts
27-Jan-19 17:58 34.200202 -118.358755 265 720ft 1kts
27-Jan-19 17:59 34.200495 -118.358616 5 721ft 7kts
27-Jan-19 18:00 34.203714 -118.359228 346 734ft 19kts
27-Jan-19 18:01 34.210069 -118.360988 346 762ft 19kts
27-Jan-19 18:02 34.211605 -118.361259 36 766ft 0kts
27-Jan-19 18:03 34.211605 -118.361259 36 766ft 0kts
27-Jan-19 18:04 34.211605 -118.361259 36 766ft 0kts
27-Jan-19 18:05 34.211605 -118.361259 36 766ft 0kts
27-Jan-19 18:06 34.211974 -118.360538 109 766ft 10kts
27-Jan-19 18:07 34.205650 -118.358736 168 792ft 73kts
27-Jan-19 18:08 34.186133 -118.361499 235 1367ft 77kts
27-Jan-19 18:09 34.174040 -118.384519 229 1901ft 82kts
27-Jan-19 18:10 34.160730 -118.405316 223 2411ft 81kts
27-Jan-19 18:10 34.147797 -118.421654 221 2834ft 81kts
27-Jan-19 18:12 34.134899 -118.435902 214 3162ft 81kts
27-Jan-19 18:13 34.132194 -118.458259 278 3686ft 68kts
27-Jan-19 18:13 34.134397 -118.472873 276 3835ft 79kts
27-Jan-19 18:14 34.137614 -118.498364 284 4245ft 80kts
27-Jan-19 18:15 34.144727 -118.523675 286 4590ft 78kts
27-Jan-19 18:17 34.153013 -118.552282 285 4984ft 77kts
27-Jan-19 18:17 34.159116 -118.571796 284 5320ft 70kts
27-Jan-19 18:18 34.165310 -118.594105 289 5657ft 70kts
27-Jan-19 18:19 34.173730 -118.615522 283 5977ft 69kts
27-Jan-19 18:20 34.180084 -118.639549 287 6179ft 86kts
27-Jan-19 18:21 34.187926 -118.670434 285 6133ft 105kts
27-Jan-19 18:22 34.196154 -118.704940 270 6048ft 97kts
27-Jan-19 18:23 34.198360 -118.737305 274 6062ft 96kts
27-Jan-19 18:24 34.201649 -118.769359 274 6065ft 96kts
27-Jan-19 18:25 34.205425 -118.801944 272 6067ft 95kts
27-Jan-19 18:26 34.207823 -118.834352 274 6071ft 95kts
27-Jan-19 18:27 34.209109 -118.866311 277 6063ft 96kts
27-Jan-19 18:28 34.218173 -118.896931 287 6082ft 95kts
27-Jan-19 18:29 34.224430 -118.927406 271 6127ft 92kts
27-Jan-19 18:30 34.228384 -118.958323 272 6151ft 92kts
27-Jan-19 18:31 34.232223 -118.989379 278 6165ft 94kts
27-Jan-19 18:32 34.236863 -119.020821 273 6159ft 95kts
27-Jan-19 18:33 34.240904 -119.052816 276 6140ft 96kts
27-Jan-19 18:34 34.243895 -119.084895 279 6126ft 96kts
27-Jan-19 18:35 34.249731 -119.116696 280 6115ft 97kts
27-Jan-19 18:36 34.254411 -119.148535 275 6106ft 96kts
27-Jan-19 18:37 34.258181 -119.180604 279 6100ft 96kts
27-Jan-19 18:38 34.264119 -119.212358 278 6090ft 96kts
27-Jan-19 18:39 34.268411 -119.244203 281 6081ft 96kts
27-Jan-19 18:40 34.272333 -119.266961 274 6073ft 96kts
27-Jan-19 18:41 34.277387 -119.298809 278 6065ft 96kts
27-Jan-19 18:42 34.281622 -119.330885 268 6055ft 95kts
27-Jan-19 18:43 34.284490 -119.362849 277 6048ft 96kts
27-Jan-19 18:44 34.289538 -119.393442 277 6040ft 96kts
27-Jan-19 18:45 34.295363 -119.425161 282 6032ft 97kts
27-Jan-19 18:46 34.302781 -119.456489 281 6025ft 97kts
27-Jan-19 18:47 34.309314 -119.488434 278 6033ft 103kts
27-Jan-19 18:48 34.315671 -119.523470 279 6062ft 109kts
27-Jan-19 18:49 34.320597 -119.560655 266 5996ft 113kts
27-Jan-19 18:50 34.321723 -119.598615 271 5981ft 112kts
27-Jan-19 18:51 34.324586 -119.635545 270 6050ft 107kts
27-Jan-19 18:52 34.326071 -119.671355 269 6143ft 105kts
27-Jan-19 18:53 34.327670 -119.708999 272 6006ft 110kts
27-Jan-19 18:54 34.329659 -119.744593 272 6001ft 105kts
27-Jan-19 18:55 34.331320 -119.779987 266 5959ft 104kts
27-Jan-19 18:56 34.333076 -119.814822 270 5972ft 102kts
27-Jan-19 18:57 34.334488 -119.849947 271 5674ft 116kts
27-Jan-19 18:58 34.338245 -119.890168 273 5073ft 120kts
27-Jan-19 18:59 34.341790 -119.930735 269 4483ft 120kts
27-Jan-19 19:00 34.343687 -119.971427 270 3892ft 121kts
27-Jan-19 19:01 34.344088 -120.011969 268 3317ft 121kts
27-Jan-19 19:02 34.347475 -120.050851 283 3104ft 106kts
27-Jan-19 19:03 34.374118 -120.062208 346 3029ft 107kts
27-Jan-19 19:04 34.403474 -120.067918 358 3015ft 107kts
27-Jan-19 19:05 34.423453 -120.043688 63 2618ft 106kts
27-Jan-19 19:06 34.425921 -120.009060 97 2205ft 103kts
27-Jan-19 19:07 34.425738 -119.975496 94 1875ft 93kts
27-Jan-19 19:08 34.425393 -119.944253 93 1548ft 95kts
27-Jan-19 19:09 34.425583 -119.911976 96 1040ft 98kts
27-Jan-19 19:10 34.426858 -119.880322 92 517ft 92kts
27-Jan-19 19:11 34.427529 -119.853508 94 21ft 62kts
27-Jan-19 19:12 34.427560 -119.848366 94 13ft 9kts
27-Jan-19 19:13 34.426822 -119.846315 171 13ft 0kts
27-Jan-19 19:14 34.426133 -119.841224 162 13ft 15kts
27-Jan-19 19:15 34.423219 -119.839433 123 13ft 13kts
27-Jan-19 19:16 34.422460 -119.836573 124 11ft 0kts
27-Jan-19 19:17 34.422460 -119.836573 124 11ft 0kts

Navigation Log

Ident Type
Flight plan parsing failed, navigation log unavailable